sensor_id;sensor_type;location;lat;lon;timestamp;pressure;altitude;pressure_sealevel;temperature;humidity
71915;BME280;60387;49.994;14.660;2023-11-22T00:01:10;97968.31;;;5.99;61.72
71915;BME280;60387;49.994;14.660;2023-11-22T00:03:43;97959.72;;;5.97;61.78
71915;BME280;60387;49.994;14.660;2023-11-22T00:06:17;97961.31;;;5.98;61.45
71915;BME280;60387;49.994;14.660;2023-11-22T00:08:50;97961.84;;;5.95;61.57
71915;BME280;60387;49.994;14.660;2023-11-22T00:11:26;97956.47;;;5.95;61.47
71915;BME280;60387;49.994;14.660;2023-11-22T00:13:59;97965.06;;;5.92;61.48
71915;BME280;60387;49.994;14.660;2023-11-22T00:16:33;97971.50;;;5.91;61.37
71915;BME280;60387;49.994;14.660;2023-11-22T00:19:06;97975.81;;;5.87;61.20
71915;BME280;60387;49.994;14.660;2023-11-22T00:21:39;97979.28;;;5.82;61.01
71915;BME280;60387;49.994;14.660;2023-11-22T00:24:12;97978.97;;;5.79;61.17
71915;BME280;60387;49.994;14.660;2023-11-22T00:26:46;97984.94;;;5.81;60.88
71915;BME280;60387;49.994;14.660;2023-11-22T00:29:19;97988.13;;;5.78;60.90
71915;BME280;60387;49.994;14.660;2023-11-22T00:31:52;97981.38;;;5.75;60.55
71915;BME280;60387;49.994;14.660;2023-11-22T00:34:26;97995.09;;;5.69;60.50
71915;BME280;60387;49.994;14.660;2023-11-22T00:36:59;97989.16;;;5.67;60.50
71915;BME280;60387;49.994;14.660;2023-11-22T00:39:32;97980.56;;;5.70;60.38
71915;BME280;60387;49.994;14.660;2023-11-22T00:42:06;97991.84;;;5.72;60.36
71915;BME280;60387;49.994;14.660;2023-11-22T00:44:39;97991.84;;;5.67;60.33
71915;BME280;60387;49.994;14.660;2023-11-22T00:47:12;98003.34;;;5.57;60.17
71915;BME280;60387;49.994;14.660;2023-11-22T00:49:46;97994.22;;;5.58;60.06
71915;BME280;60387;49.994;14.660;2023-11-22T00:52:19;97996.91;;;5.58;60.09
71915;BME280;60387;49.994;14.660;2023-11-22T00:54:52;98002.53;;;5.52;60.16
71915;BME280;60387;49.994;14.660;2023-11-22T00:57:26;98003.56;;;5.46;59.97
71915;BME280;60387;49.994;14.660;2023-11-22T00:59:59;98003.03;;;5.44;59.80
71915;BME280;60387;49.994;14.660;2023-11-22T01:02:32;98011.53;;;5.31;59.73
71915;BME280;60387;49.994;14.660;2023-11-22T01:05:06;98016.34;;;5.24;59.47
71915;BME280;60387;49.994;14.660;2023-11-22T01:07:40;98015.34;;;5.35;59.59
71915;BME280;60387;49.994;14.660;2023-11-22T01:10:13;98010.47;;;5.32;59.68
71915;BME280;60387;49.994;14.660;2023-11-22T01:12:47;98011.28;;;5.32;59.66
71915;BME280;60387;49.994;14.660;2023-11-22T01:15:20;98012.84;;;5.23;59.70
71915;BME280;60387;49.994;14.660;2023-11-22T01:17:53;98015.84;;;5.27;59.54
71915;BME280;60387;49.994;14.660;2023-11-22T01:20:26;97996.41;;;5.15;59.16
71915;BME280;60387;49.994;14.660;2023-11-22T01:23:00;98015.53;;;5.28;59.32
71915;BME280;60387;49.994;14.660;2023-11-22T01:25:33;98017.69;;;5.26;59.61
71915;BME280;60387;49.994;14.660;2023-11-22T01:28:06;98020.38;;;5.21;59.51
71915;BME280;60387;49.994;14.660;2023-11-22T01:30:39;98025.75;;;5.21;59.38
71915;BME280;60387;49.994;14.660;2023-11-22T01:33:13;98029.75;;;5.19;59.31
71915;BME280;60387;49.994;14.660;2023-11-22T01:35:46;98035.88;;;5.14;59.46
71915;BME280;60387;49.994;14.660;2023-11-22T01:38:19;98039.66;;;5.13;59.56
71915;BME280;60387;49.994;14.660;2023-11-22T01:40:52;98036.13;;;5.08;59.34
71915;BME280;60387;49.994;14.660;2023-11-22T01:43:26;98052.28;;;5.18;59.42
71915;BME280;60387;49.994;14.660;2023-11-22T01:46:00;98057.38;;;5.14;59.32
71915;BME280;60387;49.994;14.660;2023-11-22T01:48:33;98056.00;;;5.12;59.37
71915;BME280;60387;49.994;14.660;2023-11-22T01:51:07;98046.34;;;5.11;59.46
71915;BME280;60387;49.994;14.660;2023-11-22T01:53:41;98042.03;;;5.10;59.11
71915;BME280;60387;49.994;14.660;2023-11-22T01:56:14;98042.00;;;5.05;59.23
71915;BME280;60387;49.994;14.660;2023-11-22T01:58:49;98042.00;;;5.05;59.40
71915;BME280;60387;49.994;14.660;2023-11-22T02:01:22;98052.72;;;5.05;59.26
71915;BME280;60387;49.994;14.660;2023-11-22T02:03:55;98059.41;;;5.02;59.54
71915;BME280;60387;49.994;14.660;2023-11-22T02:06:29;98062.69;;;5.04;59.35
71915;BME280;60387;49.994;14.660;2023-11-22T02:09:02;98071.53;;;5.05;59.28
71915;BME280;60387;49.994;14.660;2023-11-22T02:11:36;98081.16;;;5.01;59.39
71915;BME280;60387;49.994;14.660;2023-11-22T02:14:09;98071.78;;;5.03;59.26
71915;BME280;60387;49.994;14.660;2023-11-22T02:16:42;98081.19;;;5.06;59.38
71915;BME280;60387;49.994;14.660;2023-11-22T02:19:17;98082.00;;;5.06;59.69
71915;BME280;60387;49.994;14.660;2023-11-22T02:21:50;98092.75;;;5.06;59.52
71915;BME280;60387;49.994;14.660;2023-11-22T02:24:23;98095.72;;;5.10;59.47
71915;BME280;60387;49.994;14.660;2023-11-22T02:26:57;98105.94;;;5.08;59.71
71915;BME280;60387;49.994;14.660;2023-11-22T02:29:30;98103.78;;;5.10;59.29
71915;BME280;60387;49.994;14.660;2023-11-22T02:32:03;98107.56;;;5.14;59.65
71915;BME280;60387;49.994;14.660;2023-11-22T02:34:37;98110.81;;;5.16;59.70
71915;BME280;60387;49.994;14.660;2023-11-22T02:37:10;98106.50;;;5.15;59.44
71915;BME280;60387;49.994;14.660;2023-11-22T02:40:37;98122.06;;;5.13;59.40
71915;BME280;60387;49.994;14.660;2023-11-22T02:42:49;98118.28;;;5.09;59.24
71915;BME280;60387;49.994;14.660;2023-11-22T02:45:27;98127.69;;;5.11;59.19
71915;BME280;60387;49.994;14.660;2023-11-22T02:48:01;98132.19;;;5.06;59.00
71915;BME280;60387;49.994;14.660;2023-11-22T02:50:34;98135.41;;;5.03;59.03
71915;BME280;60387;49.994;14.660;2023-11-22T02:53:08;98141.28;;;5.00;58.97
71915;BME280;60387;49.994;14.660;2023-11-22T02:55:41;98143.41;;;4.98;58.90
71915;BME280;60387;49.994;14.660;2023-11-22T02:58:14;98144.47;;;4.97;59.15
71915;BME280;60387;49.994;14.660;2023-11-22T03:00:47;98145.28;;;4.97;58.90
71915;BME280;60387;49.994;14.660;2023-11-22T03:03:21;98154.13;;;4.98;58.77
71915;BME280;60387;49.994;14.660;2023-11-22T03:05:54;98152.53;;;4.97;58.56
71915;BME280;60387;49.994;14.660;2023-11-22T03:08:27;98145.75;;;4.89;58.56
71915;BME280;60387;49.994;14.660;2023-11-22T03:11:00;98140.63;;;4.88;58.61
71915;BME280;60387;49.994;14.660;2023-11-22T03:13:34;98148.69;;;4.88;58.99
71915;BME280;60387;49.994;14.660;2023-11-22T03:16:07;98157.84;;;4.92;58.89
71915;BME280;60387;49.994;14.660;2023-11-22T03:18:40;98162.47;;;4.96;58.88
71915;BME280;60387;49.994;14.660;2023-11-22T03:21:13;98155.97;;;4.92;58.58
71915;BME280;60387;49.994;14.660;2023-11-22T03:23:47;98164.03;;;4.92;58.68
71915;BME280;60387;49.994;14.660;2023-11-22T03:26:20;98164.00;;;4.87;58.79
71915;BME280;60387;49.994;14.660;2023-11-22T03:28:53;98177.13;;;4.89;58.65
71915;BME280;60387;49.994;14.660;2023-11-22T03:31:27;98173.91;;;4.87;58.85
71915;BME280;60387;49.994;14.660;2023-11-22T03:34:00;98180.72;;;4.73;59.40
71915;BME280;60387;49.994;14.660;2023-11-22T03:36:34;98179.16;;;4.77;59.26
71915;BME280;60387;49.994;14.660;2023-11-22T03:39:07;98175.53;;;4.61;59.88
71915;BME280;60387;49.994;14.660;2023-11-22T03:41:40;98175.00;;;4.64;59.48
71915;BME280;60387;49.994;14.660;2023-11-22T03:44:14;98173.72;;;4.67;59.92
71915;BME280;60387;49.994;14.660;2023-11-22T03:46:47;98183.63;;;4.66;60.37
71915;BME280;60387;49.994;14.660;2023-11-22T03:49:20;98192.19;;;4.63;60.07
71915;BME280;60387;49.994;14.660;2023-11-22T03:51:54;98194.03;;;4.63;61.02
71915;BME280;60387;49.994;14.660;2023-11-22T03:54:27;98180.59;;;4.58;60.48
71915;BME280;60387;49.994;14.660;2023-11-22T03:57:00;98179.75;;;4.57;60.92
71915;BME280;60387;49.994;14.660;2023-11-22T03:59:34;98209.50;;;4.56;60.79
71915;BME280;60387;49.994;14.660;2023-11-22T04:02:08;98211.47;;;4.60;61.01
71915;BME280;60387;49.994;14.660;2023-11-22T04:04:41;98223.50;;;4.58;60.73
71915;BME280;60387;49.994;14.660;2023-11-22T04:07:14;98235.34;;;4.62;60.78
71915;BME280;60387;49.994;14.660;2023-11-22T04:09:48;98240.41;;;4.58;60.73
71915;BME280;60387;49.994;14.660;2023-11-22T04:12:21;98236.09;;;4.57;60.95
71915;BME280;60387;49.994;14.660;2023-11-22T04:14:54;98228.28;;;4.56;61.08
71915;BME280;60387;49.994;14.660;2023-11-22T04:17:27;98227.25;;;4.57;60.59
71915;BME280;60387;49.994;14.660;2023-11-22T04:20:01;98237.47;;;4.60;60.80
71915;BME280;60387;49.994;14.660;2023-11-22T04:22:34;98223.19;;;4.54;61.07
71915;BME280;60387;49.994;14.660;2023-11-22T04:25:08;98214.31;;;4.54;60.73
71915;BME280;60387;49.994;14.660;2023-11-22T04:27:41;98234.25;;;4.58;60.81
71915;BME280;60387;49.994;14.660;2023-11-22T04:30:14;98237.66;;;4.53;60.56
71915;BME280;60387;49.994;14.660;2023-11-22T04:32:48;98245.44;;;4.55;60.78
71915;BME280;60387;49.994;14.660;2023-11-22T04:35:21;98241.66;;;4.51;60.71
71915;BME280;60387;49.994;14.660;2023-11-22T04:37:54;98230.38;;;4.49;60.54
71915;BME280;60387;49.994;14.660;2023-11-22T04:40:27;98240.28;;;4.48;60.93
71915;BME280;60387;49.994;14.660;2023-11-22T04:43:01;98237.84;;;4.47;60.75
71915;BME280;60387;49.994;14.660;2023-11-22T04:45:34;98221.75;;;4.47;60.70
71915;BME280;60387;49.994;14.660;2023-11-22T04:48:07;98223.41;;;4.48;60.86
71915;BME280;60387;49.994;14.660;2023-11-22T04:50:41;98230.09;;;4.50;60.63
71915;BME280;60387;49.994;14.660;2023-11-22T04:53:15;98233.59;;;4.51;60.63
71915;BME280;60387;49.994;14.660;2023-11-22T04:55:48;98238.97;;;4.51;60.67
71915;BME280;60387;49.994;14.660;2023-11-22T04:58:21;98260.44;;;4.51;60.73
71915;BME280;60387;49.994;14.660;2023-11-22T05:00:57;98272.28;;;4.55;60.90
71915;BME280;60387;49.994;14.660;2023-11-22T05:03:30;98282.69;;;4.51;60.29
71915;BME280;60387;49.994;14.660;2023-11-22T05:06:04;98285.69;;;4.55;60.58
71915;BME280;60387;49.994;14.660;2023-11-22T05:08:37;98294.56;;;4.55;60.67
71915;BME280;60387;49.994;14.660;2023-11-22T05:11:10;98305.28;;;4.55;60.87
71915;BME280;60387;49.994;14.660;2023-11-22T05:13:44;98298.63;;;4.58;60.65
71915;BME280;60387;49.994;14.660;2023-11-22T05:16:17;98295.63;;;4.54;60.33
71915;BME280;60387;49.994;14.660;2023-11-22T05:18:50;98300.72;;;4.56;61.10
71915;BME280;60387;49.994;14.660;2023-11-22T05:21:24;98301.22;;;4.53;60.72
71915;BME280;60387;49.994;14.660;2023-11-22T05:23:57;98313.84;;;4.52;60.72
71915;BME280;60387;49.994;14.660;2023-11-22T05:26:30;98309.22;;;4.48;60.80
71915;BME280;60387;49.994;14.660;2023-11-22T05:29:04;98313.53;;;4.49;60.57
71915;BME280;60387;49.994;14.660;2023-11-22T05:31:37;98302.53;;;4.50;60.92
71915;BME280;60387;49.994;14.660;2023-11-22T05:34:10;98321.88;;;4.52;60.55
71915;BME280;60387;49.994;14.660;2023-11-22T05:36:43;98332.63;;;4.52;60.55
71915;BME280;60387;49.994;14.660;2023-11-22T05:39:17;98321.81;;;4.47;60.60
71915;BME280;60387;49.994;14.660;2023-11-22T05:41:53;98342.34;;;4.58;60.47
71915;BME280;60387;49.994;14.660;2023-11-22T05:44:26;98345.28;;;4.57;60.56
71915;BME280;60387;49.994;14.660;2023-11-22T05:47:00;98350.97;;;4.60;60.62
71915;BME280;60387;49.994;14.660;2023-11-22T05:49:34;98347.69;;;4.58;60.35
71915;BME280;60387;49.994;14.660;2023-11-22T05:52:07;98355.75;;;4.58;60.80
71915;BME280;60387;49.994;14.660;2023-11-22T05:54:40;98362.19;;;4.57;60.68
71915;BME280;60387;49.994;14.660;2023-11-22T05:57:13;98358.44;;;4.58;60.76
71915;BME280;60387;49.994;14.660;2023-11-22T05:59:47;98359.50;;;4.57;60.48
71915;BME280;60387;49.994;14.660;2023-11-22T06:02:20;98371.59;;;4.60;60.62
71915;BME280;60387;49.994;14.660;2023-11-22T06:04:53;98379.66;;;4.60;60.55
71915;BME280;60387;49.994;14.660;2023-11-22T06:07:26;98377.53;;;4.62;60.67
71915;BME280;60387;49.994;14.660;2023-11-22T06:10:00;98383.16;;;4.60;60.91
71915;BME280;60387;49.994;14.660;2023-11-22T06:12:33;98388.13;;;4.52;60.38
71915;BME280;60387;49.994;14.660;2023-11-22T06:15:07;98384.78;;;4.45;60.81
71915;BME280;60387;49.994;14.660;2023-11-22T06:17:40;98388.13;;;4.52;60.73
71915;BME280;60387;49.994;14.660;2023-11-22T06:20:14;98380.06;;;4.52;60.81
71915;BME280;60387;49.994;14.660;2023-11-22T06:22:47;98385.44;;;4.52;61.01
71915;BME280;60387;49.994;14.660;2023-11-22T06:25:20;98395.66;;;4.55;60.65
71915;BME280;60387;49.994;14.660;2023-11-22T06:27:54;98397.28;;;4.56;60.74
71915;BME280;60387;49.994;14.660;2023-11-22T06:30:27;98389.75;;;4.53;60.90
71915;BME280;60387;49.994;14.660;2023-11-22T06:33:00;98393.72;;;4.50;60.28
71915;BME280;60387;49.994;14.660;2023-11-22T06:35:34;98388.34;;;4.50;60.60
71915;BME280;60387;49.994;14.660;2023-11-22T06:38:07;98386.50;;;4.51;60.52
71915;BME280;60387;49.994;14.660;2023-11-22T06:40:41;98396.16;;;4.52;60.95
71915;BME280;60387;49.994;14.660;2023-11-22T06:43:14;98405.84;;;4.53;60.77
71915;BME280;60387;49.994;14.660;2023-11-22T06:45:47;98409.59;;;4.52;60.80
71915;BME280;60387;49.994;14.660;2023-11-22T06:48:20;98404.78;;;4.54;60.96
71915;BME280;60387;49.994;14.660;2023-11-22T06:50:54;98413.31;;;4.51;61.25
71915;BME280;60387;49.994;14.660;2023-11-22T06:53:27;98426.50;;;4.52;60.64
71915;BME280;60387;49.994;14.660;2023-11-22T06:56:00;98428.72;;;4.39;61.45
71915;BME280;60387;49.994;14.660;2023-11-22T06:58:34;98427.47;;;4.46;61.00
71915;BME280;60387;49.994;14.660;2023-11-22T07:01:07;98434.47;;;4.47;61.46
71915;BME280;60387;49.994;14.660;2023-11-22T07:03:40;98435.19;;;4.43;61.13
71915;BME280;60387;49.994;14.660;2023-11-22T07:06:13;98426.50;;;4.36;61.02
71915;BME280;60387;49.994;14.660;2023-11-22T07:08:47;98394.25;;;4.14;61.15
71915;BME280;60387;49.994;14.660;2023-11-22T07:11:24;98442.34;;;4.21;61.20
71915;BME280;60387;49.994;14.660;2023-11-22T07:13:57;98424.78;;;4.30;61.32
71915;BME280;60387;49.994;14.660;2023-11-22T07:16:32;98416.50;;;4.15;61.61
71915;BME280;60387;49.994;14.660;2023-11-22T07:19:05;98423.09;;;4.24;61.41
71915;BME280;60387;49.994;14.660;2023-11-22T07:21:38;98430.16;;;4.30;61.29
71915;BME280;60387;49.994;14.660;2023-11-22T07:24:11;98427.22;;;4.31;61.43
71915;BME280;60387;49.994;14.660;2023-11-22T07:26:45;98435.22;;;4.26;61.36
71915;BME280;60387;49.994;14.660;2023-11-22T07:29:18;98447.22;;;4.24;61.36
71915;BME280;60387;49.994;14.660;2023-11-22T07:31:51;98459.41;;;4.31;61.46
71915;BME280;60387;49.994;14.660;2023-11-22T07:34:25;98462.59;;;4.28;61.81
71915;BME280;60387;49.994;14.660;2023-11-22T07:36:58;98473.16;;;4.35;61.47
71915;BME280;60387;49.994;14.660;2023-11-22T07:39:31;98479.41;;;4.40;61.32
71915;BME280;60387;49.994;14.660;2023-11-22T07:42:07;98466.88;;;4.46;61.39
71915;BME280;60387;49.994;14.660;2023-11-22T07:44:40;98488.19;;;4.52;61.45
71915;BME280;60387;49.994;14.660;2023-11-22T07:47:14;98493.88;;;4.56;61.48
71915;BME280;60387;49.994;14.660;2023-11-22T07:49:47;98461.78;;;4.44;61.50
71915;BME280;60387;49.994;14.660;2023-11-22T07:52:23;98500.47;;;4.65;61.42
71915;BME280;60387;49.994;14.660;2023-11-22T07:54:57;98511.78;;;4.67;61.32
71915;BME280;60387;49.994;14.660;2023-11-22T07:57:30;98498.91;;;4.69;61.34
71915;BME280;60387;49.994;14.660;2023-11-22T08:00:04;98502.16;;;4.71;61.21
71915;BME280;60387;49.994;14.660;2023-11-22T08:02:38;98519.88;;;4.72;61.24
71915;BME280;60387;49.994;14.660;2023-11-22T08:05:11;98503.78;;;4.72;61.18
71915;BME280;60387;49.994;14.660;2023-11-22T08:07:45;98501.69;;;4.74;60.72
71915;BME280;60387;49.994;14.660;2023-11-22T08:10:18;98500.38;;;4.76;60.83
71915;BME280;60387;49.994;14.660;2023-11-22T08:12:51;98502.81;;;4.78;60.79
71915;BME280;60387;49.994;14.660;2023-11-22T08:15:24;98503.13;;;4.81;60.73
71915;BME280;60387;49.994;14.660;2023-11-22T08:17:58;98486.88;;;4.71;60.48
71915;BME280;60387;49.994;14.660;2023-11-22T08:20:31;98482.63;;;4.75;60.14
71915;BME280;60387;49.994;14.660;2023-11-22T08:23:07;98487.22;;;4.75;60.43
71915;BME280;60387;49.994;14.660;2023-11-22T08:25:41;98499.25;;;4.72;60.65
71915;BME280;60387;49.994;14.660;2023-11-22T08:28:14;98530.22;;;4.80;60.74
71915;BME280;60387;49.994;14.660;2023-11-22T08:30:47;98553.56;;;4.79;60.91
71915;BME280;60387;49.994;14.660;2023-11-22T08:33:20;98564.03;;;4.81;60.71
71915;BME280;60387;49.994;14.660;2023-11-22T08:35:54;98568.84;;;4.79;60.67
71915;BME280;60387;49.994;14.660;2023-11-22T08:38:27;98564.03;;;4.81;60.76
71915;BME280;60387;49.994;14.660;2023-11-22T08:41:04;98568.13;;;4.83;60.54
71915;BME280;60387;49.994;14.660;2023-11-22T08:43:37;98579.69;;;4.84;60.63
71915;BME280;60387;49.994;14.660;2023-11-22T08:46:11;98582.81;;;4.81;60.53
71915;BME280;60387;49.994;14.660;2023-11-22T08:48:44;98561.84;;;4.78;60.66
71915;BME280;60387;49.994;14.660;2023-11-22T08:51:17;98569.56;;;4.74;60.63
71915;BME280;60387;49.994;14.660;2023-11-22T08:53:51;98569.81;;;4.73;60.56
71915;BME280;60387;49.994;14.660;2023-11-22T08:56:24;98573.81;;;4.70;60.65
71915;BME280;60387;49.994;14.660;2023-11-22T08:58:57;98574.38;;;4.72;60.60
71915;BME280;60387;49.994;14.660;2023-11-22T09:01:31;98573.88;;;4.75;60.55
71915;BME280;60387;49.994;14.660;2023-11-22T09:04:04;98580.41;;;4.79;60.68
71915;BME280;60387;49.994;14.660;2023-11-22T09:06:37;98578.28;;;4.81;60.72
71915;BME280;60387;49.994;14.660;2023-11-22T09:09:10;98586.09;;;4.83;60.66
71915;BME280;60387;49.994;14.660;2023-11-22T09:11:44;98590.66;;;4.82;60.78
71915;BME280;60387;49.994;14.660;2023-11-22T09:14:17;98584.22;;;4.83;60.50
71915;BME280;60387;49.994;14.660;2023-11-22T09:16:51;98600.88;;;4.85;60.76
71915;BME280;60387;49.994;14.660;2023-11-22T09:19:24;98592.03;;;4.85;60.74
71915;BME280;60387;49.994;14.660;2023-11-22T09:21:57;98598.94;;;4.81;60.54
71915;BME280;60387;49.994;14.660;2023-11-22T09:24:31;98604.47;;;4.74;60.36
71915;BME280;60387;49.994;14.660;2023-11-22T09:27:04;98605.34;;;4.80;60.49
71915;BME280;60387;49.994;14.660;2023-11-22T09:29:37;98599.44;;;4.78;60.31
71915;BME280;60387;49.994;14.660;2023-11-22T09:32:11;98593.31;;;4.66;60.85
71915;BME280;60387;49.994;14.660;2023-11-22T09:34:44;98594.22;;;4.71;60.70
71915;BME280;60387;49.994;14.660;2023-11-22T09:37:17;98596.63;;;4.73;60.94
71915;BME280;60387;49.994;14.660;2023-11-22T09:39:51;98590.03;;;4.64;60.82
71915;BME280;60387;49.994;14.660;2023-11-22T09:42:24;98604.41;;;4.69;60.74
71915;BME280;60387;49.994;14.660;2023-11-22T09:44:57;98599.59;;;4.71;60.43
71915;BME280;60387;49.994;14.660;2023-11-22T09:47:32;98593.66;;;4.69;60.57
71915;BME280;60387;49.994;14.660;2023-11-22T09:50:08;98601.78;;;4.74;60.43
71915;BME280;60387;49.994;14.660;2023-11-22T09:52:43;98611.00;;;4.78;60.47
71915;BME280;60387;49.994;14.660;2023-11-22T09:55:20;98613.41;;;4.80;60.12
71915;BME280;60387;49.994;14.660;2023-11-22T09:57:58;98619.38;;;4.82;60.70
71915;BME280;60387;49.994;14.660;2023-11-22T10:00:32;98615.69;;;4.88;60.53
71915;BME280;60387;49.994;14.660;2023-11-22T10:03:05;98610.66;;;4.91;60.50
71915;BME280;60387;49.994;14.660;2023-11-22T10:05:42;98601.22;;;4.89;60.44
71915;BME280;60387;49.994;14.660;2023-11-22T10:08:15;98613.44;;;4.96;60.67
71915;BME280;60387;49.994;14.660;2023-11-22T10:10:49;98623.69;;;4.99;60.64
71915;BME280;60387;49.994;14.660;2023-11-22T10:13:23;98632.06;;;5.03;60.67
71915;BME280;60387;49.994;14.660;2023-11-22T10:16:09;98628.09;;;5.05;60.55
71915;BME280;60387;49.994;14.660;2023-11-22T10:18:43;98630.78;;;5.05;60.70
71915;BME280;60387;49.994;14.660;2023-11-22T10:21:25;98638.09;;;5.10;60.43
71915;BME280;60387;49.994;14.660;2023-11-22T10:24:03;98628.25;;;4.99;60.73
71915;BME280;60387;49.994;14.660;2023-11-22T10:26:36;98657.44;;;5.12;60.55
71915;BME280;60387;49.994;14.660;2023-11-22T10:29:12;98669.59;;;5.14;60.47
71915;BME280;60387;49.994;14.660;2023-11-22T10:31:46;98671.53;;;5.19;60.68
71915;BME280;60387;49.994;14.660;2023-11-22T10:34:20;98665.09;;;5.20;60.35
71915;BME280;60387;49.994;14.660;2023-11-22T10:36:55;98664.53;;;5.18;60.94
71915;BME280;60387;49.994;14.660;2023-11-22T10:39:29;98665.34;;;5.18;60.63
71915;BME280;60387;49.994;14.660;2023-11-22T10:42:05;98661.59;;;5.19;60.38
71915;BME280;60387;49.994;14.660;2023-11-22T10:44:39;98647.88;;;5.16;60.29
71915;BME280;60387;49.994;14.660;2023-11-22T10:47:14;98665.59;;;5.17;60.42
71915;BME280;60387;49.994;14.660;2023-11-22T10:49:48;98667.47;;;5.16;60.26
71915;BME280;60387;49.994;14.660;2023-11-22T10:52:24;98676.56;;;5.15;60.37
71915;BME280;60387;49.994;14.660;2023-11-22T10:55:02;98684.88;;;5.14;60.23
71915;BME280;60387;49.994;14.660;2023-11-22T10:57:40;98678.19;;;5.16;60.26
71915;BME280;60387;49.994;14.660;2023-11-22T11:00:19;98681.44;;;5.18;60.34
71915;BME280;60387;49.994;14.660;2023-11-22T11:03:19;98680.97;;;5.21;60.38
71915;BME280;60387;49.994;14.660;2023-11-22T11:05:58;98682.84;;;5.21;60.19
71915;BME280;60387;49.994;14.660;2023-11-22T11:08:32;98671.38;;;5.09;60.31
71915;BME280;60387;49.994;14.660;2023-11-22T11:11:06;98682.03;;;5.20;60.31
71915;BME280;60387;49.994;14.660;2023-11-22T11:13:40;98693.03;;;5.19;60.12
71915;BME280;60387;49.994;14.660;2023-11-22T11:16:13;98695.47;;;5.20;60.25
71915;BME280;60387;49.994;14.660;2023-11-22T11:18:47;98686.34;;;5.21;60.28
71915;BME280;60387;49.994;14.660;2023-11-22T11:21:21;98680.72;;;5.23;60.26
71915;BME280;60387;49.994;14.660;2023-11-22T11:23:55;98663.53;;;5.24;60.09
71915;BME280;60387;49.994;14.660;2023-11-22T11:26:28;98663.31;;;5.25;60.13
71915;BME280;60387;49.994;14.660;2023-11-22T11:29:04;98667.16;;;5.29;60.17
71915;BME280;60387;49.994;14.660;2023-11-22T11:31:41;98663.13;;;5.32;60.09
71915;BME280;60387;49.994;14.660;2023-11-22T11:34:16;98652.97;;;5.34;60.22
71915;BME280;60387;49.994;14.660;2023-11-22T11:36:53;98650.88;;;5.36;60.06
71915;BME280;60387;49.994;14.660;2023-11-22T11:39:26;98652.97;;;5.34;60.04
71915;BME280;60387;49.994;14.660;2023-11-22T11:42:10;98651.38;;;5.33;59.82
71915;BME280;60387;49.994;14.660;2023-11-22T11:47:33;98665.03;;;5.31;59.86
71915;BME280;60387;49.994;14.660;2023-11-22T11:50:07;98676.00;;;5.30;59.95
71915;BME280;60387;49.994;14.660;2023-11-22T11:52:40;98667.72;;;5.31;59.97
71915;BME280;60387;49.994;14.660;2023-11-22T11:55:13;98664.28;;;5.36;60.01
71915;BME280;60387;49.994;14.660;2023-11-22T11:57:46;98668.84;;;5.35;60.05
71915;BME280;60387;49.994;14.660;2023-11-22T12:00:20;98668.59;;;5.37;59.95
71915;BME280;60387;49.994;14.660;2023-11-22T12:02:53;98673.47;;;5.40;59.99
71915;BME280;60387;49.994;14.660;2023-11-22T12:05:26;98667.31;;;5.39;59.86
71915;BME280;60387;49.994;14.660;2023-11-22T12:08:00;98670.31;;;5.43;59.79
71915;BME280;60387;49.994;14.660;2023-11-22T12:10:33;98676.50;;;5.43;59.83
71915;BME280;60387;49.994;14.660;2023-11-22T12:13:06;98673.81;;;5.43;59.36
71915;BME280;60387;49.994;14.660;2023-11-22T12:15:41;98671.94;;;5.44;59.98
71915;BME280;60387;49.994;14.660;2023-11-22T12:18:14;98684.31;;;5.45;59.60
71915;BME280;60387;49.994;14.660;2023-11-22T12:20:58;98673.00;;;5.43;59.81
71915;BME280;60387;49.994;14.660;2023-11-22T12:23:31;98682.13;;;5.42;59.23
71915;BME280;60387;49.994;14.660;2023-11-22T12:26:05;98690.09;;;5.37;59.72
71915;BME280;60387;49.994;14.660;2023-11-22T12:28:45;98688.13;;;5.32;59.56
71915;BME280;60387;49.994;14.660;2023-11-22T12:31:19;98701.81;;;5.31;59.63
71915;BME280;60387;49.994;14.660;2023-11-22T12:33:53;98701.00;;;5.30;59.56
71915;BME280;60387;49.994;14.660;2023-11-22T12:36:26;98710.94;;;5.30;59.77
71915;BME280;60387;49.994;14.660;2023-11-22T12:38:59;98718.97;;;5.30;59.61
71915;BME280;60387;49.994;14.660;2023-11-22T12:41:32;98723.22;;;5.26;59.66
71915;BME280;60387;49.994;14.660;2023-11-22T12:44:06;98727.78;;;5.25;59.60
71915;BME280;60387;49.994;14.660;2023-11-22T12:49:19;98722.97;;;5.27;59.72
71915;BME280;60387;49.994;14.660;2023-11-22T12:51:54;98715.63;;;5.23;59.77
71915;BME280;60387;49.994;14.660;2023-11-22T12:54:27;98720.53;;;5.26;59.43
71915;BME280;60387;49.994;14.660;2023-11-22T12:57:01;98706.78;;;5.22;59.52
71915;BME280;60387;49.994;14.660;2023-11-22T12:59:34;98711.31;;;5.22;59.88
71915;BME280;60387;49.994;14.660;2023-11-22T13:02:07;98713.53;;;5.25;59.70
71915;BME280;60387;49.994;14.660;2023-11-22T13:04:40;98706.50;;;5.24;59.70
71915;BME280;60387;49.994;14.660;2023-11-22T13:07:14;98691.22;;;5.24;59.66
71915;BME280;60387;49.994;14.660;2023-11-22T13:09:47;98692.84;;;5.25;59.69
71915;BME280;60387;49.994;14.660;2023-11-22T13:12:20;98693.41;;;5.27;59.58
71915;BME280;60387;49.994;14.660;2023-11-22T13:14:53;98682.09;;;5.25;59.45
71915;BME280;60387;49.994;14.660;2023-11-22T13:17:27;98682.09;;;5.25;59.58
71915;BME280;60387;49.994;14.660;2023-11-22T13:20:00;98680.25;;;5.26;59.69
71915;BME280;60387;49.994;14.660;2023-11-22T13:22:33;98672.75;;;5.28;59.59
71915;BME280;60387;49.994;14.660;2023-11-22T13:25:09;98684.06;;;5.30;59.61
71915;BME280;60387;49.994;14.660;2023-11-22T13:27:42;98681.94;;;5.32;59.42
71915;BME280;60387;49.994;14.660;2023-11-22T13:30:16;98680.31;;;5.31;59.98
71915;BME280;60387;49.994;14.660;2023-11-22T13:32:52;98708.91;;;5.37;59.74
71915;BME280;60387;49.994;14.660;2023-11-22T13:35:26;98700.84;;;5.37;59.47
71915;BME280;60387;49.994;14.660;2023-11-22T13:38:00;98700.34;;;5.40;59.44
71915;BME280;60387;49.994;14.660;2023-11-22T13:40:33;98696.28;;;5.37;59.46